This is the latest recevied weather packets stored in our database for station/object iz1wiy-3. If no packets are shown the sender has not sent any weather packets the latest 1 day(s).
| Time | Temp. | Humidity | Pressure | Rain* | Wind** | Luminosity | Snow |
|---|---|---|---|---|---|---|---|
| 1778044443 | 17.22° C | 86% | 1009.9 hPa | 6.35 mm | 3.13 m/s, 221° | - | - |
| 1778044384 | 17.22° C | 87% | 1009.6 hPa | 5.08 mm | 3.13 m/s, 225° | - | - |
| 1778044323 | 17.22° C | 87% | 1009.4 hPa | 3.81 mm | 3.13 m/s, 224° | - | - |
| 1778044263 | 17.22° C | 87% | 1009.3 hPa | 3.3 mm | 3.13 m/s, 221° | - | - |
| 1778044203 | 17.22° C | 87% | 1009.3 hPa | 2.54 mm | 3.13 m/s, 222° | - | - |
| 1778044143 | 17.22° C | 87% | 1009.3 hPa | 2.29 mm | 3.13 m/s, 223° | - | - |
| 1778044083 | 17.22° C | 87% | 1009.2 hPa | 2.03 mm | 3.13 m/s, 221° | - | - |
| 1778044023 | 17.22° C | 87% | 1009.2 hPa | 2.03 mm | 3.13 m/s, 221° | - | - |
| 1778043964 | 17.22° C | 87% | 1009.2 hPa | 2.03 mm | 2.68 m/s, 221° | - | - |
| 1778043904 | 17.22° C | 87% | 1009.2 hPa | 2.03 mm | 2.68 m/s, 218° | - | - |
| 1778043843 | 17.22° C | 87% | 1009.2 hPa | 2.29 mm | 2.68 m/s, 217° | - | - |
| 1778043783 | 17.22° C | 87% | 1009.2 hPa | 2.29 mm | 2.68 m/s, 218° | - | - |
| 1778043723 | 17.22° C | 87% | 1009.1 hPa | 2.29 mm | 2.68 m/s, 217° | - | - |
| 1778043663 | 17.22° C | 88% | 1009.1 hPa | 2.29 mm | 2.68 m/s, 219° | - | - |
| 1778043603 | 17.22° C | 88% | 1009.1 hPa | 2.29 mm | 2.68 m/s, 219° | - | - |
| 1778043551 | 17.22° C | 88% | 1009.1 hPa | 2.29 mm | 3.13 m/s, 218° | - | - |
| 1778043483 | 17.22° C | 88% | 1009.2 hPa | 2.29 mm | 3.13 m/s, 219° | - | - |
| 1778043423 | 17.22° C | 88% | 1009.2 hPa | 2.29 mm | 3.13 m/s, 218° | - | - |
| 1778043363 | 17.22° C | 88% | 1009.2 hPa | 2.79 mm | 3.13 m/s, 218° | - | - |
| 1778043303 | 16.67° C | 88% | 1009.2 hPa | 3.05 mm | 3.13 m/s, 216° | - | - |
| 1778043243 | 16.67° C | 88% | 1009.3 hPa | 3.05 mm | 3.13 m/s, 214° | - | - |
| 1778043183 | 16.67° C | 88% | 1009.2 hPa | 2.79 mm | 3.58 m/s, 212° | - | - |
| 1778043124 | 16.67° C | 88% | 1009.2 hPa | 2.79 mm | 3.58 m/s, 210° | - | - |
| 1778043064 | 17.22° C | 88% | 1009.2 hPa | 2.79 mm | 3.58 m/s, 208° | - | - |
| 1778043003 | 17.22° C | 88% | 1009.3 hPa | 2.54 mm | 3.58 m/s, 207° | - | - |
* Rain latest hour (hover to see other rain measurements)
** Current wind speed in m/s (hover to see current wind gust speed)